createdAt,value
2022-12-13T00:01:52.091Z,10.50
2022-12-13T00:04:22.389Z,10.77
2022-12-13T00:06:53.847Z,9.90
2022-12-13T00:09:22.284Z,8.30
2022-12-13T00:11:50.834Z,11.17
2022-12-13T00:14:19.242Z,10.80
2022-12-13T00:16:48.677Z,9.90
2022-12-13T00:19:18.590Z,10.03
2022-12-13T00:21:46.678Z,10.40
2022-12-13T00:24:16.021Z,9.90
2022-12-13T00:26:44.019Z,9.73
2022-12-13T00:29:13.234Z,8.60
2022-12-13T00:32:00.400Z,10.27
2022-12-13T00:34:29.405Z,10.37
2022-12-13T00:36:58.904Z,9.33
2022-12-13T00:39:29.165Z,9.67
2022-12-13T00:41:57.211Z,10.37
2022-12-13T00:44:27.965Z,8.97
2022-12-13T00:46:56.492Z,10.77
2022-12-13T00:49:24.809Z,11.17
2022-12-13T00:51:52.798Z,8.13
2022-12-13T00:54:21.055Z,11.13
2022-12-13T00:56:52.460Z,10.00
2022-12-13T00:59:20.471Z,9.50
2022-12-13T01:01:48.639Z,8.80
2022-12-13T01:04:16.660Z,8.93
2022-12-13T01:06:49.653Z,9.00
2022-12-13T01:09:21.544Z,8.80
2022-12-13T01:11:51.668Z,8.43
2022-12-13T01:14:21.312Z,9.30
2022-12-13T01:16:49.439Z,8.00
2022-12-13T01:19:17.876Z,10.07
2022-12-13T01:21:45.889Z,8.20
2022-12-13T01:24:13.860Z,8.50
2022-12-13T01:26:41.909Z,8.67
2022-12-13T01:29:11.422Z,10.00
2022-12-13T01:31:42.105Z,9.73
2022-12-13T01:34:11.318Z,9.30
2022-12-13T01:36:39.950Z,9.87
2022-12-13T01:39:14.712Z,9.20
2022-12-13T01:41:44.836Z,8.33
2022-12-13T01:44:58.154Z,8.70
2022-12-13T01:47:30.884Z,7.20
2022-12-13T01:50:04.136Z,7.97
2022-12-13T01:52:34.520Z,8.73
2022-12-13T01:55:05.947Z,7.60
2022-12-13T01:57:36.870Z,7.87
2022-12-13T02:00:10.702Z,7.67
2022-12-13T02:02:39.990Z,7.70
2022-12-13T02:05:12.604Z,7.77
2022-12-13T02:07:44.385Z,9.03
2022-12-13T02:10:12.663Z,8.20
2022-12-13T02:12:42.799Z,8.73
2022-12-13T02:15:16.796Z,6.40
2022-12-13T02:18:16.657Z,8.73
2022-12-13T02:21:01.847Z,10.53
2022-12-13T02:24:11.311Z,8.70
2022-12-13T02:26:51.889Z,8.97
2022-12-13T02:30:03.944Z,6.40
2022-12-13T02:32:38.972Z,6.10
2022-12-13T02:35:11.337Z,6.93
2022-12-13T02:37:49.882Z,7.07
2022-12-13T02:40:25.589Z,6.87
2022-12-13T02:43:02.500Z,7.10
2022-12-13T02:45:36.140Z,9.20
2022-12-13T02:48:07.115Z,8.40
2022-12-13T02:50:37.054Z,6.83
2022-12-13T02:53:07.214Z,8.60
2022-12-13T02:55:36.741Z,8.00
2022-12-13T02:58:04.692Z,6.83
2022-12-13T03:00:48.308Z,7.23
2022-12-13T03:03:31.962Z,8.13
2022-12-13T03:06:34.065Z,9.47
2022-12-13T03:09:24.561Z,7.33
2022-12-13T03:12:30.314Z,8.10
2022-12-13T03:15:07.493Z,7.83
2022-12-13T03:17:43.737Z,8.63
2022-12-13T03:20:22.693Z,7.90
2022-12-13T03:22:51.633Z,7.50
2022-12-13T03:25:30.735Z,6.00
2022-12-13T03:28:02.613Z,7.40
2022-12-13T03:30:31.890Z,5.93
2022-12-13T03:32:59.887Z,7.90
2022-12-13T03:35:34.808Z,7.80
2022-12-13T03:38:22.276Z,7.27
2022-12-13T03:40:54.417Z,7.80
2022-12-13T03:43:23.241Z,8.90
2022-12-13T03:45:52.404Z,7.57
2022-12-13T03:48:22.689Z,6.43
2022-12-13T03:50:54.369Z,6.00
2022-12-13T03:53:33.011Z,7.57
2022-12-13T03:56:02.876Z,6.97
2022-12-13T03:58:36.270Z,6.33
2022-12-13T04:01:10.178Z,7.50
2022-12-13T04:03:39.923Z,7.53
2022-12-13T04:06:10.636Z,7.83
2022-12-13T04:08:39.914Z,8.10
2022-12-13T04:11:22.687Z,7.33
2022-12-13T04:13:50.753Z,6.43
2022-12-13T04:16:18.928Z,7.30
2022-12-13T04:18:46.988Z,8.23
2022-12-13T04:21:16.535Z,6.70
2022-12-13T04:23:44.530Z,8.20
2022-12-13T04:26:12.619Z,8.40
2022-12-13T04:28:40.615Z,6.30
2022-12-13T04:31:08.790Z,7.77
2022-12-13T04:33:37.408Z,7.50
2022-12-13T04:36:08.570Z,5.77
2022-12-13T04:38:37.865Z,6.13
2022-12-13T04:41:12.278Z,7.07
2022-12-13T04:43:40.252Z,6.20
2022-12-13T04:46:08.316Z,6.60
2022-12-13T04:48:36.422Z,6.30
2022-12-13T04:51:04.555Z,7.90
2022-12-13T04:53:32.574Z,7.80
2022-12-13T04:56:04.605Z,5.40
2022-12-13T04:58:33.123Z,8.00
2022-12-13T05:01:01.320Z,7.27
2022-12-13T05:03:29.499Z,5.90
2022-12-13T05:05:57.504Z,7.20
2022-12-13T05:08:25.595Z,6.67
2022-12-13T05:10:56.036Z,5.93
2022-12-13T05:13:25.373Z,7.83
2022-12-13T05:15:57.358Z,5.80
2022-12-13T05:18:26.589Z,6.50
2022-12-13T05:20:55.056Z,6.10
2022-12-13T05:23:25.606Z,6.30
2022-12-13T05:25:54.205Z,5.40
2022-12-13T05:28:28.053Z,6.80
2022-12-13T05:31:00.715Z,4.80
2022-12-13T05:33:29.098Z,5.90
2022-12-13T05:36:00.690Z,5.90
2022-12-13T05:38:31.145Z,5.90
2022-12-13T05:40:59.397Z,7.30
2022-12-13T05:43:42.173Z,5.70
2022-12-13T05:46:13.564Z,6.27
2022-12-13T05:48:41.859Z,7.20
2022-12-13T05:51:13.160Z,7.10
2022-12-13T05:53:42.326Z,6.10
2022-12-13T05:56:12.192Z,6.50
2022-12-13T05:58:41.694Z,6.00
2022-12-13T06:01:14.029Z,8.77
2022-12-13T06:03:42.827Z,5.20
2022-12-13T06:06:13.344Z,6.73
2022-12-13T06:08:41.924Z,6.23
2022-12-13T06:11:12.301Z,7.83
2022-12-13T06:13:43.510Z,6.87
2022-12-13T06:16:23.379Z,5.07
2022-12-13T06:19:03.687Z,5.87
2022-12-13T06:21:45.546Z,4.87
2022-12-13T06:24:16.359Z,5.27
2022-12-13T06:26:45.170Z,6.87
2022-12-13T06:29:22.716Z,6.40
2022-12-13T06:32:01.428Z,7.17
2022-12-13T06:34:33.242Z,5.07
2022-12-13T06:37:01.370Z,4.33
2022-12-13T06:39:32.747Z,5.03
2022-12-13T06:42:11.596Z,6.70
2022-12-13T06:44:39.537Z,6.13
2022-12-13T06:47:10.639Z,5.93
2022-12-13T06:49:41.879Z,7.40
2022-12-13T06:52:12.839Z,5.50
2022-12-13T06:54:41.461Z,6.10
2022-12-13T06:57:09.789Z,7.03
2022-12-13T06:59:37.835Z,5.37
2022-12-13T07:02:24.499Z,5.97
2022-12-13T07:04:54.311Z,4.83
2022-12-13T07:07:22.836Z,6.30
2022-12-13T07:09:50.829Z,6.17
2022-12-13T07:12:20.817Z,5.60
2022-12-13T07:14:48.847Z,6.90
2022-12-13T07:17:32.816Z,5.80
2022-12-13T07:20:07.648Z,6.03
2022-12-13T07:22:41.559Z,5.57
2022-12-13T07:25:26.695Z,4.60
2022-12-13T07:28:02.918Z,5.80
2022-12-13T07:30:34.021Z,6.57
2022-12-13T07:33:11.394Z,5.73
2022-12-13T07:35:39.599Z,5.40
2022-12-13T07:38:07.765Z,6.90
2022-12-13T07:40:36.065Z,5.70
2022-12-13T07:43:04.777Z,5.80
2022-12-13T07:45:32.996Z,7.20
2022-12-13T07:48:06.367Z,5.73
2022-12-13T07:50:37.442Z,7.37
2022-12-13T07:53:07.442Z,6.53
2022-12-13T07:55:36.350Z,6.57
2022-12-13T07:58:06.505Z,5.50
2022-12-13T08:00:35.026Z,5.27
2022-12-13T08:03:03.006Z,6.03
2022-12-13T08:05:38.779Z,5.37
2022-12-13T08:08:11.794Z,4.90
2022-12-13T08:10:40.292Z,4.67
2022-12-13T08:13:08.333Z,5.10
2022-12-13T08:15:36.374Z,6.47
2022-12-13T08:18:05.001Z,5.80
2022-12-13T08:20:33.039Z,4.63
2022-12-13T08:23:02.282Z,5.03
2022-12-13T08:25:32.349Z,6.63
2022-12-13T08:28:02.378Z,6.90
2022-12-13T08:30:32.306Z,9.17
2022-12-13T08:33:04.861Z,9.03
2022-12-13T08:35:34.777Z,8.90
2022-12-13T08:38:03.785Z,6.50
2022-12-13T08:40:33.479Z,6.83
2022-12-13T08:43:01.781Z,5.90
2022-12-13T08:45:31.566Z,6.60
2022-12-13T08:48:00.629Z,5.60
2022-12-13T08:50:29.623Z,6.73
2022-12-13T08:52:58.162Z,5.37
2022-12-13T08:55:31.899Z,9.97
2022-12-13T08:58:08.606Z,7.77
2022-12-13T09:00:37.147Z,7.40
2022-12-13T09:03:05.719Z,8.63
2022-12-13T09:05:38.241Z,6.50
2022-12-13T09:08:24.590Z,7.17
2022-12-13T09:11:00.505Z,7.10
2022-12-13T09:13:33.139Z,8.30
2022-12-13T09:16:14.141Z,7.33
2022-12-13T09:18:42.397Z,6.90
2022-12-13T09:21:13.695Z,6.40
2022-12-13T09:23:50.140Z,6.67
2022-12-13T09:26:18.124Z,16.27
2022-12-13T09:28:54.881Z,6.80
2022-12-13T09:31:23.237Z,7.60
2022-12-13T09:33:51.299Z,5.73
2022-12-13T09:36:21.709Z,6.80
2022-12-13T09:38:49.833Z,6.13
2022-12-13T09:41:29.210Z,6.17
2022-12-13T09:44:05.772Z,8.57
2022-12-13T09:46:44.804Z,10.23
2022-12-13T09:49:23.216Z,6.30
2022-12-13T09:52:21.364Z,6.70
2022-12-13T09:54:51.019Z,5.57
2022-12-13T09:57:32.371Z,6.40
2022-12-13T10:00:06.663Z,5.63
2022-12-13T10:02:45.922Z,7.10
2022-12-13T10:05:34.109Z,6.60
2022-12-13T10:08:09.714Z,7.00
2022-12-13T10:10:37.929Z,5.87
2022-12-13T10:13:17.720Z,5.73
2022-12-13T10:15:52.260Z,6.10
2022-12-13T10:18:32.694Z,7.33
2022-12-13T10:21:02.559Z,6.00
2022-12-13T10:23:52.489Z,6.10
2022-12-13T10:26:24.547Z,5.20
2022-12-13T10:29:04.520Z,6.63
2022-12-13T10:31:42.128Z,6.67
2022-12-13T10:34:22.408Z,5.67
2022-12-13T10:36:50.550Z,6.50
2022-12-13T10:39:20.659Z,5.50
2022-12-13T10:41:48.735Z,6.37
2022-12-13T10:44:22.457Z,6.37
2022-12-13T10:47:12.102Z,5.80
2022-12-13T10:49:59.340Z,6.87
2022-12-13T10:52:32.072Z,5.40
2022-12-13T10:55:04.698Z,6.67
2022-12-13T10:57:54.057Z,4.90
2022-12-13T11:00:35.938Z,5.30
2022-12-13T11:03:06.473Z,6.20
2022-12-13T11:05:39.024Z,7.50
2022-12-13T11:08:22.944Z,5.80
2022-12-13T11:10:59.803Z,5.60
2022-12-13T11:13:38.422Z,4.77
2022-12-13T11:16:22.765Z,4.27
2022-12-13T11:18:55.581Z,7.47
2022-12-13T11:21:27.655Z,6.67
2022-12-13T11:24:01.505Z,4.90
2022-12-13T11:26:32.531Z,5.73
2022-12-13T11:29:38.198Z,6.33
2022-12-13T11:32:23.066Z,5.20
2022-12-13T11:34:59.251Z,5.13
2022-12-13T11:37:33.305Z,4.57
2022-12-13T11:40:06.836Z,4.67
2022-12-13T11:42:41.726Z,5.77
2022-12-13T11:45:23.641Z,5.23
2022-12-13T11:48:03.204Z,5.57
2022-12-13T11:50:38.019Z,5.00
2022-12-13T11:53:25.729Z,5.33
2022-12-13T11:56:08.367Z,4.27
2022-12-13T11:59:02.385Z,5.20
2022-12-13T12:01:39.029Z,4.47
2022-12-13T12:04:20.270Z,6.97
2022-12-13T12:06:54.713Z,7.07
2022-12-13T12:09:26.951Z,6.80
2022-12-13T12:12:03.003Z,5.83
2022-12-13T12:14:41.754Z,6.47
2022-12-13T12:17:14.299Z,5.83
2022-12-13T12:19:46.660Z,6.87
2022-12-13T12:22:31.693Z,5.37
2022-12-13T12:25:16.205Z,6.03
2022-12-13T12:27:53.293Z,6.13
2022-12-13T12:30:24.410Z,7.00
2022-12-13T12:33:01.540Z,6.97
2022-12-13T12:35:53.032Z,5.83
2022-12-13T12:39:19.881Z,6.10
2022-12-13T12:42:07.670Z,6.43
2022-12-13T12:44:49.335Z,5.10
2022-12-13T12:47:56.412Z,5.70
2022-12-13T12:50:31.586Z,7.80
2022-12-13T12:53:20.456Z,5.90
2022-12-13T12:56:00.054Z,5.67
2022-12-13T12:58:35.203Z,5.50
2022-12-13T13:01:26.145Z,7.43
2022-12-13T13:04:01.888Z,6.80
2022-12-13T13:06:35.772Z,7.30
2022-12-13T13:09:09.151Z,7.67
2022-12-13T13:11:43.041Z,5.93
2022-12-13T13:14:32.692Z,6.53
2022-12-13T13:17:02.425Z,7.20
2022-12-13T13:19:47.586Z,6.30
2022-12-13T13:22:33.411Z,6.23
2022-12-13T13:25:26.890Z,5.90
2022-12-13T13:28:06.433Z,6.60
2022-12-13T13:30:36.840Z,5.23
2022-12-13T13:33:05.053Z,5.20
2022-12-13T13:35:53.213Z,6.83
2022-12-13T13:39:01.207Z,6.40
2022-12-13T13:42:03.140Z,6.53
2022-12-13T13:45:21.629Z,6.40
2022-12-13T13:48:14.553Z,6.37
2022-12-13T13:51:27.373Z,5.07
2022-12-13T13:54:50.349Z,5.63
2022-12-13T13:58:13.269Z,6.27
2022-12-13T14:01:41.615Z,5.63
2022-12-13T14:05:21.834Z,6.80
2022-12-13T14:08:28.767Z,5.43
2022-12-13T14:11:20.965Z,6.80
2022-12-13T14:14:38.711Z,6.93
2022-12-13T14:18:02.759Z,6.17
2022-12-13T14:20:59.684Z,6.37
2022-12-13T14:23:45.170Z,6.10
2022-12-13T14:26:41.840Z,8.27
2022-12-13T14:29:18.378Z,6.40
2022-12-13T14:31:49.604Z,6.40
2022-12-13T14:34:25.313Z,8.07
2022-12-13T14:37:01.132Z,7.53
2022-12-13T14:39:31.051Z,6.53
2022-12-13T14:42:01.845Z,7.60
2022-12-13T14:44:33.720Z,7.63
2022-12-13T14:47:05.170Z,7.60
2022-12-13T14:49:36.380Z,7.60
2022-12-13T14:52:08.756Z,7.80
2022-12-13T14:54:47.084Z,7.10
2022-12-13T14:57:20.482Z,7.17
2022-12-13T14:59:50.688Z,8.80
2022-12-13T15:02:31.044Z,7.27
2022-12-13T15:05:02.171Z,6.43
2022-12-13T15:07:36.102Z,7.00
2022-12-13T15:10:16.759Z,8.00
2022-12-13T15:12:45.464Z,8.20
2022-12-13T15:15:26.606Z,8.13
2022-12-13T15:18:08.790Z,7.73
2022-12-13T15:20:41.476Z,7.73
2022-12-13T15:23:22.744Z,7.80
2022-12-13T15:25:59.606Z,7.23
2022-12-13T15:28:30.915Z,7.70
2022-12-13T15:31:01.521Z,8.87
2022-12-13T15:33:36.821Z,6.83
2022-12-13T15:36:11.107Z,6.40
2022-12-13T15:38:47.452Z,8.83
2022-12-13T15:41:18.960Z,7.00
2022-12-13T15:43:49.435Z,6.43
2022-12-13T15:46:26.316Z,5.80
2022-12-13T15:48:55.961Z,6.33
2022-12-13T15:51:30.092Z,6.37
2022-12-13T15:54:07.674Z,6.20
2022-12-13T15:56:38.204Z,8.13
2022-12-13T15:59:24.863Z,7.37
2022-12-13T16:01:58.007Z,7.00
2022-12-13T16:04:29.401Z,7.30
2022-12-13T16:06:58.034Z,7.47
2022-12-13T16:09:31.406Z,7.40
2022-12-13T16:12:03.196Z,6.50
2022-12-13T16:14:49.419Z,8.57
2022-12-13T16:17:25.179Z,7.80
2022-12-13T16:20:01.127Z,9.70
2022-12-13T16:22:31.452Z,7.83
2022-12-13T16:25:00.754Z,7.77
2022-12-13T16:27:28.733Z,7.07
2022-12-13T16:29:56.700Z,7.30
2022-12-13T16:32:24.797Z,7.90
2022-12-13T16:34:52.819Z,7.10
2022-12-13T16:37:27.446Z,7.40
2022-12-13T16:39:55.978Z,8.67
2022-12-13T16:42:27.358Z,7.77
2022-12-13T16:45:24.791Z,7.80
2022-12-13T16:47:48.851Z,8.50
2022-12-13T16:50:19.637Z,7.27
2022-12-13T16:52:47.917Z,7.63
2022-12-13T16:55:16.647Z,10.73
2022-12-13T16:57:56.051Z,7.93
2022-12-13T17:00:24.294Z,6.90
2022-12-13T17:02:53.283Z,5.53
2022-12-13T17:05:21.781Z,6.60
2022-12-13T17:07:49.850Z,6.30
2022-12-13T17:10:19.434Z,6.67
2022-12-13T17:12:48.864Z,5.80
2022-12-13T17:15:17.546Z,7.10
2022-12-13T17:17:47.304Z,7.13
2022-12-13T17:20:19.058Z,7.13
2022-12-13T17:22:47.400Z,6.40
2022-12-13T17:25:15.623Z,5.87
2022-12-13T17:27:44.807Z,6.40
2022-12-13T17:30:18.322Z,6.10
2022-12-13T17:32:47.174Z,7.47
2022-12-13T17:35:18.753Z,5.50
2022-12-13T17:37:47.717Z,6.20
2022-12-13T17:40:16.884Z,6.27
2022-12-13T17:42:45.528Z,7.63
2022-12-13T17:45:16.862Z,6.93
2022-12-13T17:47:45.236Z,6.40
2022-12-13T17:50:13.684Z,6.60
2022-12-13T17:52:42.378Z,6.80
2022-12-13T17:55:17.785Z,6.70
2022-12-13T17:57:46.892Z,6.90
2022-12-13T18:00:17.991Z,6.50
2022-12-13T18:02:55.048Z,6.10
2022-12-13T18:05:26.080Z,5.00
2022-12-13T18:07:54.257Z,7.13
2022-12-13T18:10:27.802Z,5.57
2022-12-13T18:12:58.030Z,5.60
2022-12-13T18:15:27.562Z,6.00
2022-12-13T18:18:11.189Z,5.73
2022-12-13T18:20:40.040Z,7.00
2022-12-13T18:23:08.145Z,7.83
2022-12-13T18:25:36.264Z,5.20
2022-12-13T18:28:05.080Z,6.40
2022-12-13T18:30:34.457Z,5.73
2022-12-13T18:33:02.532Z,5.90
2022-12-13T18:35:35.972Z,5.67
2022-12-13T18:38:04.643Z,5.80
2022-12-13T18:40:32.654Z,5.43
2022-12-13T18:43:00.594Z,5.53
2022-12-13T18:45:28.578Z,6.17
2022-12-13T18:47:57.980Z,6.13
2022-12-13T18:50:26.263Z,5.53
2022-12-13T18:52:54.239Z,5.73
2022-12-13T18:55:22.253Z,5.93
2022-12-13T18:57:52.541Z,8.13
2022-12-13T19:00:21.192Z,6.20
2022-12-13T19:02:52.014Z,8.03
2022-12-13T19:05:22.027Z,6.80
2022-12-13T19:07:50.001Z,12.77
2022-12-13T19:10:18.590Z,11.27
2022-12-13T19:12:46.595Z,7.13
2022-12-13T19:15:16.796Z,8.63
2022-12-13T19:17:44.805Z,15.97
2022-12-13T19:20:13.188Z,15.17
2022-12-13T19:22:42.546Z,10.77
2022-12-13T19:25:11.293Z,6.30
2022-12-13T19:27:39.314Z,12.23
2022-12-13T19:30:09.116Z,12.43
2022-12-13T19:32:37.130Z,7.70
2022-12-13T19:35:05.547Z,8.50
2022-12-13T19:37:33.543Z,8.47
2022-12-13T19:40:03.809Z,7.20
2022-12-13T19:42:32.336Z,5.80
2022-12-13T19:45:03.406Z,5.10
2022-12-13T19:47:31.427Z,7.00
2022-12-13T19:49:59.437Z,8.73
2022-12-13T19:52:27.507Z,6.27
2022-12-13T19:54:57.125Z,5.63
2022-12-13T19:57:26.934Z,4.23
2022-12-13T19:59:54.950Z,5.20
2022-12-13T20:02:22.960Z,5.73
2022-12-13T20:04:51.278Z,7.20
2022-12-13T20:07:19.504Z,6.97
2022-12-13T20:09:47.516Z,6.63
2022-12-13T20:12:15.538Z,10.87
2022-12-13T20:14:45.019Z,4.67
2022-12-13T20:17:13.158Z,8.90
2022-12-13T20:19:41.193Z,9.73
2022-12-13T20:22:09.339Z,10.87
2022-12-13T20:24:37.310Z,6.93
2022-12-13T20:27:05.489Z,13.97
2022-12-13T20:29:33.538Z,7.93
2022-12-13T20:32:02.954Z,5.70
2022-12-13T20:34:31.295Z,8.10
2022-12-13T20:36:59.518Z,13.67
2022-12-13T20:39:27.734Z,9.07
2022-12-13T20:41:56.056Z,6.40
2022-12-13T20:44:24.518Z,6.83
2022-12-13T20:46:53.644Z,6.53
2022-12-13T20:49:23.310Z,5.90
2022-12-13T20:51:51.535Z,5.60
2022-12-13T20:54:19.578Z,5.37
2022-12-13T20:56:49.908Z,6.70
2022-12-13T20:59:18.278Z,5.40
2022-12-13T21:01:48.821Z,5.13
2022-12-13T21:04:17.415Z,5.70
2022-12-13T21:06:46.757Z,5.17
2022-12-13T21:09:14.891Z,8.57
2022-12-13T21:11:45.172Z,5.90
2022-12-13T21:14:21.473Z,5.73
2022-12-13T21:16:52.624Z,5.00
2022-12-13T21:19:23.151Z,4.60
2022-12-13T21:21:54.283Z,4.27
2022-12-13T21:24:24.685Z,5.33
2022-12-13T21:26:56.317Z,6.03
2022-12-13T21:29:24.345Z,5.27
2022-12-13T21:31:56.855Z,5.83
2022-12-13T21:34:24.933Z,4.70
2022-12-13T21:36:54.562Z,4.97
2022-12-13T21:39:27.914Z,4.70
2022-12-13T21:41:56.865Z,4.47
2022-12-13T21:44:25.051Z,5.00
2022-12-13T21:49:41.843Z,5.77
2022-12-13T21:52:11.241Z,4.50
2022-12-13T21:54:39.245Z,4.00
2022-12-13T21:57:24.875Z,4.33
2022-12-13T21:59:52.875Z,5.80
2022-12-13T22:02:20.994Z,4.63
2022-12-13T22:04:51.748Z,4.13
2022-12-13T22:07:23.977Z,4.47
2022-12-13T22:09:53.437Z,4.43
2022-12-13T22:12:24.449Z,4.10
2022-12-13T22:14:53.804Z,3.90
2022-12-13T22:17:29.650Z,4.13
2022-12-13T22:20:02.036Z,3.93
2022-12-13T22:22:31.677Z,4.13
2022-12-13T22:24:59.779Z,4.73
2022-12-13T22:27:27.852Z,5.03
2022-12-13T22:29:58.069Z,5.07
2022-12-13T22:32:28.627Z,4.43
2022-12-13T22:34:56.897Z,4.63
2022-12-13T22:37:25.366Z,4.50
2022-12-13T22:39:54.678Z,4.40
2022-12-13T22:42:22.942Z,4.63
2022-12-13T22:44:50.992Z,3.90
2022-12-13T22:47:19.062Z,4.40
2022-12-13T22:49:48.726Z,3.93
2022-12-13T22:52:17.522Z,4.43
2022-12-13T22:54:47.531Z,5.50
2022-12-13T22:57:16.910Z,3.30
2022-12-13T22:59:44.950Z,4.33
2022-12-13T23:02:13.164Z,4.43
2022-12-13T23:04:41.337Z,4.20
2022-12-13T23:07:09.391Z,3.67
2022-12-13T23:09:37.399Z,3.53
2022-12-13T23:12:23.758Z,3.47
2022-12-13T23:14:53.105Z,4.33
2022-12-13T23:17:21.136Z,4.17
2022-12-13T23:19:53.397Z,3.17
2022-12-13T23:22:22.973Z,4.30
2022-12-13T23:24:51.296Z,4.23
2022-12-13T23:27:20.795Z,4.23
2022-12-13T23:29:48.897Z,4.37
2022-12-13T23:32:18.692Z,5.03
2022-12-13T23:34:46.756Z,3.87
2022-12-13T23:37:14.747Z,4.53
2022-12-13T23:39:42.736Z,3.83
2022-12-13T23:42:10.712Z,4.23
2022-12-13T23:44:41.530Z,4.40
2022-12-13T23:47:09.602Z,3.87
2022-12-13T23:49:38.950Z,4.73
2022-12-13T23:52:06.961Z,3.40
2022-12-13T23:54:34.976Z,4.10
2022-12-13T23:57:02.987Z,3.10
2022-12-13T23:59:30.984Z,3.23
